Time;durP1;ratioP1;P1;durP2;ratioP2;P2;SDS_P1;SDS_P2;PMS_P1;PMS_P2;Temp;Humidity;BMP_temperature;BMP_pressure;BME280_temperature;BME280_humidity;BME280_pressure;Samples;Min_cycle;Max_cycle;Signal;HPM_P1;HPM_P2
2023/09/27 00:00:14;;;;;;;14.33;10.33;;;10.80;54.40;;;;;;5021695;28;46445;-78
2023/09/27 00:02:43;;;;;;;15.93;10.40;;;10.80;54.30;;;;;;5001393;28;46632;-78
2023/09/27 00:05:11;;;;;;;16.03;10.70;;;10.80;54.40;;;;;;5020882;28;46983;-80
2023/09/27 00:07:38;;;;;;;14.73;9.90;;;10.80;54.40;;;;;;5018675;28;46488;-78
2023/09/27 00:10:05;;;;;;;16.43;10.70;;;10.90;54.60;;;;;;5019479;28;46072;-79
2023/09/27 00:12:32;;;;;;;14.40;10.77;;;10.80;54.50;;;;;;5018735;28;46388;-79
2023/09/27 00:14:58;;;;;;;15.87;10.83;;;10.80;54.60;;;;;;5019272;28;46458;-80
2023/09/27 00:17:23;;;;;;;16.53;9.97;;;10.80;54.70;;;;;;5000990;28;48556;-80
2023/09/27 00:19:49;;;;;;;16.07;10.83;;;10.80;54.70;;;;;;5019108;28;46640;-79
2023/09/27 00:22:15;;;;;;;18.20;11.50;;;10.80;54.80;;;;;;5019438;28;46598;-80
2023/09/27 00:24:41;;;;;;;14.17;10.50;;;10.80;55.00;;;;;;5019547;28;46714;-79
2023/09/27 00:27:10;;;;;;;14.90;11.00;;;10.70;55.00;;;;;;4991261;28;46411;-78
2023/09/27 00:29:36;;;;;;;13.50;9.90;;;10.70;55.20;;;;;;5021526;28;46330;-78
2023/09/27 00:32:02;;;;;;;14.80;9.93;;;10.70;55.20;;;;;;5019528;28;46884;-78
2023/09/27 00:34:27;;;;;;;20.60;10.83;;;10.70;55.40;;;;;;5003326;28;46527;-80
2023/09/27 00:36:53;;;;;;;16.57;10.20;;;10.60;55.50;;;;;;5018926;28;46778;-80
2023/09/27 00:39:19;;;;;;;12.67;8.40;;;10.60;55.70;;;;;;5019297;28;46401;-79
2023/09/27 00:41:44;;;;;;;15.10;8.90;;;10.60;55.90;;;;;;5019893;28;46400;-80
2023/09/27 00:44:10;;;;;;;13.20;8.30;;;10.50;56.00;;;;;;5002823;28;46100;-80
2023/09/27 00:46:36;;;;;;;13.67;8.73;;;10.50;56.10;;;;;;5019888;28;46749;-80
2023/09/27 00:49:02;;;;;;;10.70;7.80;;;10.40;56.20;;;;;;5020444;28;46362;-81
2023/09/27 00:51:29;;;;;;;13.93;7.87;;;10.40;56.30;;;;;;5021139;28;46529;-79
2023/09/27 00:53:55;;;;;;;11.63;7.70;;;10.40;56.30;;;;;;5001980;28;46460;-80
2023/09/27 00:56:21;;;;;;;15.50;8.47;;;10.30;56.30;;;;;;5020131;28;46934;-79
2023/09/27 00:58:47;;;;;;;13.00;7.40;;;10.30;56.50;;;;;;5019548;28;46396;-80
2023/09/27 01:01:13;;;;;;;10.50;6.93;;;10.20;56.50;;;;;;5018812;28;45932;-78
2023/09/27 01:03:39;;;;;;;10.37;7.67;;;10.20;56.60;;;;;;5019020;28;46525;-80
2023/09/27 01:06:06;;;;;;;10.20;8.20;;;10.20;56.60;;;;;;5000339;28;48342;-80
2023/09/27 01:08:32;;;;;;;10.77;7.50;;;10.20;56.60;;;;;;5017807;28;46615;-80
2023/09/27 01:10:58;;;;;;;13.60;8.97;;;10.20;56.60;;;;;;5018567;28;46857;-80
2023/09/27 01:13:23;;;;;;;17.53;8.23;;;10.20;56.60;;;;;;5018433;28;45978;-77
2023/09/27 01:15:49;;;;;;;15.80;7.67;;;10.20;56.60;;;;;;5018528;28;47321;-81
2023/09/27 01:18:15;;;;;;;12.10;7.97;;;10.10;56.60;;;;;;5019277;28;46344;-80
2023/09/27 01:20:40;;;;;;;14.83;8.60;;;10.10;56.60;;;;;;5018131;28;46563;-80
2023/09/27 01:23:06;;;;;;;11.70;7.63;;;10.10;56.60;;;;;;5018509;28;46611;-82
2023/09/27 01:25:37;;;;;;;11.13;7.20;;;10.00;56.70;;;;;;5018264;28;46719;-79
2023/09/27 01:28:04;;;;;;;11.70;8.77;;;10.00;56.80;;;;;;5017811;28;46421;-81
2023/09/27 01:30:33;;;;;;;14.70;9.13;;;10.00;56.80;;;;;;5019675;28;46456;-80
2023/09/27 01:33:04;;;;;;;16.57;9.23;;;10.10;56.90;;;;;;5021234;28;46389;-81
2023/09/27 01:35:30;;;;;;;14.67;8.80;;;10.10;56.60;;;;;;5017579;28;46624;-79
2023/09/27 01:37:56;;;;;;;12.20;8.20;;;10.10;56.60;;;;;;5019037;28;46684;-80
2023/09/27 01:40:26;;;;;;;21.33;9.30;;;10.00;56.70;;;;;;5019178;28;46428;-80
2023/09/27 01:42:52;;;;;;;29.43;13.50;;;10.00;56.80;;;;;;5017293;28;46405;-77
2023/09/27 01:45:18;;;;;;;29.10;14.83;;;10.10;56.70;;;;;;5001094;28;47414;-80
2023/09/27 01:47:44;;;;;;;31.57;16.97;;;10.20;56.70;;;;;;4997962;28;46528;-79
2023/09/27 01:50:10;;;;;;;28.60;17.50;;;10.40;57.00;;;;;;5020125;28;46501;-79
2023/09/27 01:52:35;;;;;;;29.30;17.33;;;10.50;57.00;;;;;;5004893;28;45988;-80
2023/09/27 01:55:02;;;;;;;29.00;17.47;;;10.50;57.10;;;;;;5022217;28;47341;-80
2023/09/27 01:57:27;;;;;;;29.37;18.03;;;10.60;57.30;;;;;;5021996;28;46465;-78
2023/09/27 01:59:53;;;;;;;26.57;17.90;;;10.70;57.50;;;;;;5023112;28;46806;-79
2023/09/27 02:02:18;;;;;;;28.47;19.27;;;10.70;57.60;;;;;;5022833;28;46452;-80
2023/09/27 02:04:44;;;;;;;25.17;16.80;;;10.80;57.70;;;;;;5022483;28;46487;-79
2023/09/27 02:07:09;;;;;;;21.73;13.10;;;10.80;57.80;;;;;;5024838;28;46379;-82
2023/09/27 02:09:35;;;;;;;19.43;11.67;;;10.70;58.20;;;;;;5024219;28;46508;-82
2023/09/27 02:12:01;;;;;;;15.30;10.40;;;10.50;58.70;;;;;;5027450;28;47145;-80
2023/09/27 02:14:26;;;;;;;15.80;10.40;;;10.40;59.10;;;;;;5023000;28;46319;-78
2023/09/27 02:16:52;;;;;;;16.37;10.43;;;10.20;59.50;;;;;;5022867;28;46722;-80
2023/09/27 02:19:17;;;;;;;17.47;10.77;;;10.00;59.80;;;;;;5003276;28;46476;-79
2023/09/27 02:21:43;;;;;;;17.03;11.27;;;9.90;61.00;;;;;;5021992;28;45877;-78
2023/09/27 02:24:12;;;;;;;17.27;10.93;;;10.00;60.40;;;;;;5021265;28;47035;-78
2023/09/27 02:26:37;;;;;;;18.47;12.50;;;9.80;61.10;;;;;;5020270;28;46042;-79
2023/09/27 02:29:03;;;;;;;21.03;12.33;;;9.80;61.00;;;;;;5011798;28;47012;-80
2023/09/27 02:31:29;;;;;;;17.77;11.80;;;9.90;61.00;;;;;;5021621;28;46496;-79
2023/09/27 02:33:55;;;;;;;20.73;12.10;;;9.90;61.00;;;;;;5002774;28;48170;-81
2023/09/27 02:36:20;;;;;;;22.80;11.83;;;9.90;60.70;;;;;;5021229;28;46450;-81
2023/09/27 02:38:46;;;;;;;22.93;12.47;;;9.90;60.60;;;;;;5023183;28;46538;-81
2023/09/27 02:41:13;;;;;;;20.93;12.73;;;10.00;59.70;;;;;;5026755;28;46234;-78
2023/09/27 02:43:40;;;;;;;23.27;14.07;;;10.00;59.60;;;;;;5020708;28;47364;-79
2023/09/27 02:46:06;;;;;;;20.10;13.37;;;10.00;59.60;;;;;;5020920;28;46003;-79
2023/09/27 02:48:31;;;;;;;25.10;13.20;;;10.00;59.50;;;;;;5020553;28;46420;-79
2023/09/27 02:50:57;;;;;;;18.20;12.77;;;10.00;59.70;;;;;;5003871;28;46827;-78
2023/09/27 02:53:22;;;;;;;23.80;13.20;;;10.20;59.70;;;;;;5021044;28;46180;-79
2023/09/27 02:55:48;;;;;;;26.07;13.43;;;10.00;59.60;;;;;;5020997;28;46403;-78
2023/09/27 02:58:13;;;;;;;20.33;13.17;;;10.00;59.80;;;;;;5020851;28;46778;-78
2023/09/27 03:00:40;;;;;;;22.60;12.97;;;10.00;59.70;;;;;;5019866;28;46933;-79
2023/09/27 03:03:07;;;;;;;17.40;11.60;;;10.00;59.80;;;;;;5020452;28;46388;-80
2023/09/27 03:05:37;;;;;;;18.93;12.43;;;10.00;59.70;;;;;;5020337;28;46376;-78
2023/09/27 03:08:03;;;;;;;18.50;11.03;;;9.90;60.50;;;;;;5022980;28;46495;-80
2023/09/27 03:10:29;;;;;;;17.67;11.67;;;9.90;60.40;;;;;;5020975;28;46484;-82
2023/09/27 03:12:55;;;;;;;19.00;12.30;;;9.90;60.40;;;;;;5004641;28;47980;-79
2023/09/27 03:15:21;;;;;;;26.73;12.40;;;9.90;60.50;;;;;;5022392;28;46868;-79
2023/09/27 03:17:47;;;;;;;14.90;10.83;;;9.90;60.60;;;;;;5002329;28;46762;-80
2023/09/27 03:20:16;;;;;;;20.20;11.23;;;9.90;60.50;;;;;;5020453;28;47393;-79
2023/09/27 03:22:46;;;;;;;16.53;9.80;;;9.90;60.50;;;;;;5003546;28;48056;-79
2023/09/27 03:25:12;;;;;;;19.80;10.97;;;9.80;60.60;;;;;;5020308;28;46426;-81
2023/09/27 03:27:38;;;;;;;14.80;9.73;;;9.80;60.60;;;;;;5020269;28;46372;-79
2023/09/27 03:30:05;;;;;;;16.03;9.00;;;9.80;60.80;;;;;;5020173;28;45800;-78
2023/09/27 03:32:32;;;;;;;17.97;9.50;;;9.70;60.90;;;;;;5020419;28;46197;-81
2023/09/27 03:34:58;;;;;;;20.73;9.50;;;9.60;61.10;;;;;;5020223;28;46486;-79
2023/09/27 03:37:23;;;;;;;20.17;9.20;;;9.50;61.40;;;;;;5020035;28;46454;-79
2023/09/27 03:39:52;;;;;;;18.13;9.80;;;9.40;61.40;;;;;;5019466;28;46596;-80
2023/09/27 03:42:18;;;;;;;22.90;11.63;;;9.30;61.60;;;;;;5020201;28;46669;-79
2023/09/27 03:44:44;;;;;;;18.20;10.30;;;9.30;61.50;;;;;;5019174;28;46768;-79
2023/09/27 03:47:10;;;;;;;18.43;10.73;;;9.30;61.40;;;;;;5019896;28;46459;-80
2023/09/27 03:49:36;;;;;;;16.43;10.63;;;9.40;61.40;;;;;;5020297;28;46753;-79
2023/09/27 03:52:02;;;;;;;18.70;11.90;;;9.40;61.20;;;;;;5001664;28;48331;-79
2023/09/27 03:54:27;;;;;;;15.77;10.67;;;9.40;61.10;;;;;;5020258;28;46508;-80
2023/09/27 03:56:54;;;;;;;18.10;11.43;;;9.40;61.20;;;;;;5005265;28;46547;-80
2023/09/27 03:59:20;;;;;;;19.23;11.33;;;9.40;61.10;;;;;;5022411;28;46582;-80
2023/09/27 04:01:46;;;;;;;21.37;11.33;;;9.40;61.20;;;;;;5009028;28;49222;-79
2023/09/27 04:04:12;;;;;;;22.43;11.37;;;9.40;61.30;;;;;;5025480;28;46628;-79
2023/09/27 04:06:37;;;;;;;21.23;10.47;;;9.40;61.30;;;;;;5007684;28;46357;-79
2023/09/27 04:09:04;;;;;;;18.43;11.03;;;9.40;61.10;;;;;;5021497;28;46149;-78
2023/09/27 04:11:29;;;;;;;16.53;10.10;;;9.40;61.10;;;;;;5000705;28;48483;-79
2023/09/27 04:13:55;;;;;;;14.63;9.33;;;9.40;61.10;;;;;;5019896;28;46403;-79
2023/09/27 04:16:20;;;;;;;13.83;8.90;;;9.30;61.10;;;;;;5005241;28;46337;-80
2023/09/27 04:18:46;;;;;;;16.97;9.40;;;9.20;61.20;;;;;;5020238;28;46819;-78
2023/09/27 04:21:12;;;;;;;18.57;9.17;;;9.20;61.40;;;;;;5020867;28;46427;-79
2023/09/27 04:23:38;;;;;;;15.83;9.90;;;9.10;61.40;;;;;;5020512;28;46357;-78
2023/09/27 04:26:07;;;;;;;19.67;9.30;;;9.00;61.60;;;;;;5017997;28;46799;-80
2023/09/27 04:28:33;;;;;;;18.00;10.43;;;9.00;61.60;;;;;;5021960;28;46440;-79
2023/09/27 04:30:58;;;;;;;12.93;9.00;;;9.00;61.70;;;;;;5019746;28;47190;-78
2023/09/27 04:33:24;;;;;;;14.67;9.40;;;9.00;61.70;;;;;;5020545;28;46388;-79
2023/09/27 04:35:50;;;;;;;13.30;9.23;;;8.90;62.80;;;;;;5018477;28;45869;-79
2023/09/27 04:38:16;;;;;;;18.10;10.10;;;8.90;61.60;;;;;;5019013;28;46496;-78
2023/09/27 04:40:41;;;;;;;20.23;9.63;;;9.00;62.50;;;;;;5000195;28;48052;-78
2023/09/27 04:43:07;;;;;;;15.23;10.37;;;9.00;61.30;;;;;;5019175;28;46409;-79
2023/09/27 04:45:33;;;;;;;16.10;10.80;;;9.00;61.30;;;;;;5019324;28;46551;-79
2023/09/27 04:47:59;;;;;;;19.93;10.87;;;9.10;61.20;;;;;;5000706;28;46836;-79
2023/09/27 04:50:25;;;;;;;18.37;10.00;;;9.10;61.20;;;;;;5018061;28;47113;-79
2023/09/27 04:52:51;;;;;;;17.70;10.73;;;9.20;61.10;;;;;;5018425;28;46480;-80
2023/09/27 04:55:17;;;;;;;16.80;10.80;;;9.20;61.00;;;;;;5021511;28;46493;-79
2023/09/27 04:57:43;;;;;;;15.70;10.00;;;9.20;61.00;;;;;;5019389;28;46672;-78
2023/09/27 05:00:18;;;;;;;17.10;10.90;;;9.20;61.00;;;;;;5017140;28;46634;-78
2023/09/27 05:02:45;;;;;;;20.80;12.00;;;9.20;61.10;;;;;;5001551;28;46416;-78
2023/09/27 05:05:11;;;;;;;18.07;11.90;;;9.30;61.10;;;;;;5020762;28;46433;-78
2023/09/27 05:07:36;;;;;;;16.87;12.17;;;9.30;61.00;;;;;;5000612;28;46511;-79
2023/09/27 05:10:02;;;;;;;17.80;10.70;;;9.30;61.10;;;;;;5018862;28;47294;-78
2023/09/27 05:12:28;;;;;;;15.40;11.00;;;9.40;61.10;;;;;;5021297;28;46619;-79
2023/09/27 05:14:53;;;;;;;20.70;13.23;;;9.60;61.30;;;;;;5018874;28;45893;-78
2023/09/27 05:17:19;;;;;;;25.30;13.80;;;9.50;61.10;;;;;;5019857;28;46508;-79
2023/09/27 05:19:44;;;;;;;22.50;13.60;;;9.60;61.10;;;;;;5019680;28;46528;-80
2023/09/27 05:22:11;;;;;;;18.53;12.33;;;9.60;61.10;;;;;;5019692;28;46477;-77
2023/09/27 05:24:38;;;;;;;16.03;10.73;;;9.70;61.10;;;;;;5025337;28;46487;-79
2023/09/27 05:27:05;;;;;;;15.30;10.20;;;9.70;61.00;;;;;;5027224;28;46437;-78
2023/09/27 05:29:31;;;;;;;11.40;8.10;;;9.60;61.20;;;;;;5017333;28;48653;-79
2023/09/27 05:31:57;;;;;;;10.60;7.90;;;9.50;61.20;;;;;;5026012;28;46447;-79
2023/09/27 05:34:23;;;;;;;11.20;7.77;;;9.50;61.40;;;;;;5027139;28;45844;-78
2023/09/27 05:36:48;;;;;;;9.63;7.40;;;9.40;61.50;;;;;;5026936;28;46615;-78
2023/09/27 05:39:14;;;;;;;12.83;8.30;;;9.40;61.60;;;;;;5027935;28;47216;-78
2023/09/27 05:41:39;;;;;;;30.03;22.20;;;9.40;61.50;;;;;;5025664;28;46456;-79
2023/09/27 05:44:05;;;;;;;22.97;19.43;;;9.50;61.50;;;;;;5028052;28;46117;-80
2023/09/27 05:46:33;;;;;;;25.40;15.80;;;9.60;61.40;;;;;;5027333;28;46749;-78
2023/09/27 05:49:01;;;;;;;18.50;13.73;;;9.70;61.10;;;;;;5025085;28;47031;-78
2023/09/27 05:51:29;;;;;;;14.47;10.40;;;9.80;60.90;;;;;;5025367;28;46408;-78
2023/09/27 05:53:54;;;;;;;13.73;9.70;;;9.90;60.70;;;;;;5012740;28;45866;-79
2023/09/27 05:56:20;;;;;;;12.67;8.87;;;10.00;59.60;;;;;;5026036;28;46654;-79
2023/09/27 05:58:45;;;;;;;12.50;9.17;;;10.10;59.40;;;;;;5026186;28;46463;-78
2023/09/27 06:01:12;;;;;;;17.00;8.90;;;10.20;59.30;;;;;;5007896;28;46272;-79
2023/09/27 06:03:38;;;;;;;13.57;9.93;;;10.40;59.20;;;;;;5006739;28;46547;-78
2023/09/27 06:06:04;;;;;;;10.90;8.37;;;10.50;59.00;;;;;;5024192;28;46481;-78
2023/09/27 06:08:30;;;;;;;9.80;7.40;;;10.60;59.00;;;;;;4997918;28;46992;-79
2023/09/27 06:10:56;;;;;;;9.13;6.90;;;10.70;58.90;;;;;;5025560;28;46408;-79
2023/09/27 06:13:22;;;;;;;9.70;6.93;;;10.80;58.90;;;;;;5025746;28;46471;-80
2023/09/27 06:15:48;;;;;;;8.37;6.43;;;10.90;58.80;;;;;;5024167;28;46485;-78
2023/09/27 06:18:13;;;;;;;8.47;7.10;;;11.00;58.70;;;;;;5025622;28;46868;-79
2023/09/27 06:20:40;;;;;;;11.27;8.00;;;11.10;58.60;;;;;;5024072;28;46565;-79
2023/09/27 06:23:06;;;;;;;10.63;8.07;;;11.30;59.00;;;;;;5006832;28;46441;-79
2023/09/27 06:25:34;;;;;;;15.50;7.93;;;11.40;58.50;;;;;;5026393;28;46580;-80
2023/09/27 06:28:02;;;;;;;11.80;7.57;;;11.60;58.30;;;;;;5005628;28;48189;-79
2023/09/27 06:30:28;;;;;;;11.10;7.90;;;11.80;58.40;;;;;;5005464;28;46483;-80
2023/09/27 06:32:53;;;;;;;8.43;6.60;;;12.00;58.20;;;;;;5023948;28;45862;-81
2023/09/27 06:35:19;;;;;;;11.30;8.50;;;12.20;58.20;;;;;;5024282;28;46608;-79
2023/09/27 06:37:49;;;;;;;12.60;9.70;;;12.30;58.10;;;;;;5022058;28;47593;-79
2023/09/27 06:40:23;;;;;;;14.33;8.20;;;12.50;58.10;;;;;;5021609;28;45872;-79
2023/09/27 06:42:49;;;;;;;12.23;8.63;;;12.70;58.20;;;;;;5019127;28;46314;-78
2023/09/27 06:45:15;;;;;;;10.40;7.70;;;13.00;58.30;;;;;;5023286;28;46713;-78
2023/09/27 06:47:42;;;;;;;10.80;8.23;;;13.10;58.20;;;;;;5020713;28;47349;-80
2023/09/27 06:50:08;;;;;;;14.97;8.30;;;13.40;58.30;;;;;;5019511;28;46523;-78
2023/09/27 06:52:34;;;;;;;9.63;7.60;;;13.60;58.20;;;;;;5021230;28;46747;-79
2023/09/27 06:55:00;;;;;;;14.70;7.17;;;13.70;58.00;;;;;;5020612;28;45960;-80
2023/09/27 06:57:26;;;;;;;13.33;8.00;;;13.80;58.40;;;;;;5020551;28;46423;-80
2023/09/27 06:59:51;;;;;;;12.30;7.27;;;13.90;58.50;;;;;;5021400;28;46255;-79
2023/09/27 07:02:17;;;;;;;9.43;6.93;;;14.00;58.80;;;;;;5022949;28;46524;-80
2023/09/27 07:04:43;;;;;;;11.60;7.00;;;14.30;58.60;;;;;;5020236;28;46412;-79
2023/09/27 07:07:10;;;;;;;11.90;7.40;;;14.40;58.50;;;;;;5001523;28;49307;-79
2023/09/27 07:09:35;;;;;;;8.67;6.63;;;14.40;58.80;;;;;;5020171;28;46507;-79
2023/09/27 07:12:02;;;;;;;12.50;7.40;;;14.50;59.00;;;;;;5003121;28;46446;-80
2023/09/27 07:14:28;;;;;;;11.07;6.60;;;14.70;59.00;;;;;;5022002;28;47331;-80
2023/09/27 07:16:53;;;;;;;10.37;6.57;;;14.80;58.80;;;;;;5021409;28;47101;-81
2023/09/27 07:19:19;;;;;;;8.17;6.43;;;14.90;58.70;;;;;;5024126;28;46801;-79
2023/09/27 07:21:45;;;;;;;9.83;6.60;;;15.10;58.60;;;;;;5025226;28;46527;-78
2023/09/27 07:24:11;;;;;;;10.70;7.60;;;15.30;58.20;;;;;;5021381;28;46455;-81
2023/09/27 07:26:41;;;;;;;11.33;7.37;;;15.60;59.00;;;;;;5022282;28;46409;-80
2023/09/27 07:29:07;;;;;;;13.93;7.33;;;15.70;57.10;;;;;;4995642;28;46398;-79
2023/09/27 07:31:33;;;;;;;9.30;6.53;;;15.90;57.10;;;;;;5021085;28;46504;-79
2023/09/27 07:33:59;;;;;;;10.57;5.97;;;16.10;57.30;;;;;;5005781;28;46907;-79
2023/09/27 07:36:24;;;;;;;11.10;6.63;;;16.00;57.20;;;;;;5020410;28;47245;-79
2023/09/27 07:38:57;;;;;;;9.13;6.60;;;16.00;57.20;;;;;;5021229;28;46527;-77
2023/09/27 07:41:24;;;;;;;9.93;7.00;;;16.10;57.20;;;;;;5018708;28;46257;-79
2023/09/27 07:43:50;;;;;;;7.20;5.37;;;16.20;57.30;;;;;;5020927;28;46803;-77
2023/09/27 07:46:17;;;;;;;8.13;5.70;;;16.30;57.50;;;;;;5020611;28;46488;-78
2023/09/27 07:48:44;;;;;;;9.13;5.87;;;16.40;57.50;;;;;;5018400;28;46439;-78
2023/09/27 07:51:19;;;;;;;10.77;5.03;;;16.40;57.50;;;;;;5019143;28;46496;-79
2023/09/27 07:53:45;;;;;;;8.30;6.20;;;16.50;57.60;;;;;;5019599;28;46651;-78
2023/09/27 07:56:19;;;;;;;9.83;5.90;;;16.60;57.80;;;;;;5018513;28;46523;-78
2023/09/27 07:58:45;;;;;;;7.20;5.20;;;17.00;57.30;;;;;;5001955;28;46492;-78
2023/09/27 08:01:12;;;;;;;8.07;5.93;;;17.10;56.60;;;;;;5019661;28;46385;-79
2023/09/27 08:03:38;;;;;;;9.17;5.30;;;17.10;56.70;;;;;;5019812;28;46456;-80
2023/09/27 08:06:04;;;;;;;23.50;5.97;;;17.30;56.60;;;;;;5020162;28;46763;-80
2023/09/27 08:08:30;;;;;;;6.43;5.07;;;17.50;56.00;;;;;;5018133;28;46460;-80
2023/09/27 08:10:57;;;;;;;9.33;5.10;;;17.80;55.50;;;;;;5019013;28;46423;-79
2023/09/27 08:13:25;;;;;;;6.50;4.37;;;17.90;55.10;;;;;;5018958;28;46659;-79
2023/09/27 08:15:51;;;;;;;7.60;5.33;;;18.10;54.50;;;;;;5018669;28;46711;-79
2023/09/27 08:18:17;;;;;;;7.13;5.20;;;18.30;54.10;;;;;;5018492;28;46436;-79
2023/09/27 08:20:43;;;;;;;12.13;5.63;;;18.50;52.90;;;;;;5017697;28;46421;-79
2023/09/27 08:23:08;;;;;;;13.63;5.50;;;18.70;52.10;;;;;;5019001;28;45988;-79
2023/09/27 08:25:34;;;;;;;8.30;5.23;;;18.90;51.20;;;;;;5018892;28;47128;-78
2023/09/27 08:28:01;;;;;;;9.27;5.17;;;19.00;50.30;;;;;;5018842;28;46567;-80
2023/09/27 08:30:27;;;;;;;9.07;5.27;;;19.10;49.70;;;;;;5020770;28;46507;-80
2023/09/27 08:32:53;;;;;;;11.90;5.70;;;19.20;49.10;;;;;;5001520;28;46832;-77
2023/09/27 08:35:19;;;;;;;8.13;5.80;;;19.30;48.60;;;;;;5003721;28;49186;-79
2023/09/27 08:37:44;;;;;;;9.70;6.10;;;19.40;48.00;;;;;;5020299;28;46564;-79
2023/09/27 08:40:13;;;;;;;11.60;4.90;;;19.50;47.20;;;;;;5003306;28;46817;-79
2023/09/27 08:42:41;;;;;;;9.63;6.00;;;19.70;47.40;;;;;;5021949;28;46361;-79
2023/09/27 08:45:13;;;;;;;9.83;6.07;;;19.70;46.20;;;;;;5018776;28;46317;-80
2023/09/27 08:47:44;;;;;;;10.13;6.80;;;19.60;45.90;;;;;;5018511;28;46456;-78
2023/09/27 08:50:13;;;;;;;19.17;7.23;;;19.50;46.00;;;;;;5019164;28;46637;-79
2023/09/27 08:52:47;;;;;;;11.13;6.00;;;19.50;46.50;;;;;;5018075;28;46464;-79
2023/09/27 08:55:13;;;;;;;10.20;6.60;;;19.50;46.60;;;;;;5001835;28;47546;-79
2023/09/27 08:57:47;;;;;;;13.03;6.67;;;19.60;47.10;;;;;;5018287;28;46444;-79
2023/09/27 09:00:21;;;;;;;11.07;6.60;;;19.80;45.50;;;;;;5018037;28;47004;-79
2023/09/27 09:02:49;;;;;;;9.10;6.70;;;20.00;45.00;;;;;;5018764;28;46314;-79
2023/09/27 09:05:16;;;;;;;11.70;7.07;;;20.10;44.50;;;;;;5017900;28;46735;-80
2023/09/27 09:07:42;;;;;;;10.50;7.13;;;20.10;43.90;;;;;;5019671;28;46385;-79
2023/09/27 09:10:13;;;;;;;11.23;6.73;;;20.00;43.40;;;;;;5018481;28;45771;-79
2023/09/27 09:12:40;;;;;;;10.97;8.03;;;19.90;43.00;;;;;;5018402;28;46642;-79
2023/09/27 09:15:06;;;;;;;12.57;6.90;;;19.70;43.10;;;;;;5003282;28;49210;-80
2023/09/27 09:17:36;;;;;;;10.47;6.77;;;19.60;43.20;;;;;;5018844;28;46396;-81
2023/09/27 09:23:04;;;;;;;12.90;8.43;;;19.50;42.90;;;;;;4983727;28;46747;-80
2023/09/27 09:25:29;;;;;;;9.80;7.50;;;19.70;42.90;;;;;;5002850;28;48284;-81
2023/09/27 09:28:07;;;;;;;12.20;7.33;;;19.70;42.40;;;;;;5011608;28;46466;-78
2023/09/27 09:30:41;;;;;;;11.73;7.73;;;19.80;41.60;;;;;;5023206;28;46690;-79
2023/09/27 09:33:18;;;;;;;10.30;7.13;;;19.90;41.20;;;;;;5008882;28;46715;-79
2023/09/27 09:35:43;;;;;;;10.37;7.57;;;20.00;41.10;;;;;;5016800;28;48003;-77
2023/09/27 09:38:09;;;;;;;11.30;8.47;;;20.00;41.10;;;;;;5018809;28;46805;-78
2023/09/27 09:40:54;;;;;;;12.37;8.00;;;20.10;40.70;;;;;;5000371;28;47232;-80
2023/09/27 09:43:37;;;;;;;14.20;7.83;;;20.20;40.50;;;;;;5020972;28;46461;-80
2023/09/27 09:46:06;;;;;;;15.90;8.23;;;20.40;40.20;;;;;;5018480;28;46631;-81
2023/09/27 09:48:36;;;;;;;12.33;7.93;;;20.50;39.90;;;;;;5018667;28;46473;-77
2023/09/27 09:51:06;;;;;;;10.03;7.30;;;20.50;39.50;;;;;;5018419;28;46539;-80
2023/09/27 09:53:40;;;;;;;11.03;7.80;;;20.60;39.10;;;;;;5018654;28;46546;-79
2023/09/27 09:56:07;;;;;;;15.00;7.90;;;20.70;38.90;;;;;;5018698;28;46389;-80
2023/09/27 09:58:39;;;;;;;14.87;9.83;;;20.70;40.00;;;;;;5018247;28;46607;-78
2023/09/27 10:01:05;;;;;;;14.90;8.70;;;20.70;38.60;;;;;;5017526;28;46596;-78
2023/09/27 10:03:35;;;;;;;12.27;9.27;;;20.80;38.50;;;;;;5018398;28;46321;-78
2023/09/27 10:06:04;;;;;;;12.30;8.27;;;21.00;38.10;;;;;;4999274;28;47460;-79
2023/09/27 10:08:34;;;;;;;16.50;8.50;;;20.90;37.70;;;;;;5017323;28;45894;-78
2023/09/27 10:11:06;;;;;;;17.20;9.13;;;21.00;37.50;;;;;;5017193;28;46397;-79
2023/09/27 10:13:37;;;;;;;18.30;8.63;;;21.00;38.40;;;;;;5021218;28;45983;-79
2023/09/27 10:16:03;;;;;;;11.83;9.20;;;21.10;37.10;;;;;;5021442;28;47228;-78
2023/09/27 10:18:39;;;;;;;13.13;8.77;;;21.20;36.90;;;;;;5023559;28;46555;-78
2023/09/27 10:21:09;;;;;;;13.53;8.50;;;21.30;36.30;;;;;;5020281;28;46483;-79
2023/09/27 10:23:43;;;;;;;12.67;8.13;;;21.40;36.10;;;;;;5022756;28;46562;-79
2023/09/27 10:26:27;;;;;;;13.27;9.00;;;21.40;35.30;;;;;;5020331;28;46965;-78
2023/09/27 10:29:09;;;;;;;11.60;7.80;;;21.50;35.40;;;;;;5004206;28;46732;-80
2023/09/27 10:31:37;;;;;;;12.73;8.20;;;21.60;35.50;;;;;;5005570;28;46512;-79
2023/09/27 10:34:23;;;;;;;13.40;9.80;;;21.70;35.60;;;;;;5020685;28;46642;-81
2023/09/27 10:36:48;;;;;;;10.93;8.00;;;21.60;35.50;;;;;;5021221;28;46983;-77
2023/09/27 10:39:14;;;;;;;10.40;7.47;;;21.70;36.80;;;;;;5020347;28;46551;-77
2023/09/27 10:41:50;;;;;;;12.00;8.40;;;21.80;34.70;;;;;;5020676;28;46475;-77
2023/09/27 10:44:29;;;;;;;12.17;7.17;;;21.80;34.30;;;;;;5022234;28;46510;-78
2023/09/27 10:46:56;;;;;;;12.40;7.37;;;21.80;34.10;;;;;;5021285;28;49302;-79
2023/09/27 10:49:24;;;;;;;10.17;7.60;;;21.90;34.10;;;;;;5021643;28;46496;-79
2023/09/27 10:51:50;;;;;;;10.80;7.60;;;22.00;33.70;;;;;;5021668;28;46656;-78
2023/09/27 10:54:21;;;;;;;12.20;6.57;;;21.90;33.30;;;;;;5021031;28;46576;-78
2023/09/27 10:56:52;;;;;;;12.00;6.77;;;21.90;33.40;;;;;;5003401;28;49463;-77
2023/09/27 10:59:28;;;;;;;10.60;6.73;;;21.90;33.40;;;;;;5002649;28;46689;-79
2023/09/27 11:01:58;;;;;;;10.97;6.80;;;21.90;33.20;;;;;;5023478;28;45875;-77
2023/09/27 11:04:24;;;;;;;15.37;7.20;;;21.90;33.10;;;;;;5022587;28;46468;-78
2023/09/27 11:06:50;;;;;;;11.90;7.70;;;22.00;33.20;;;;;;5022098;28;46392;-77
2023/09/27 11:09:19;;;;;;;11.37;6.23;;;22.00;32.70;;;;;;5003269;28;46146;-77
2023/09/27 11:11:50;;;;;;;9.03;5.30;;;21.90;32.50;;;;;;5020509;28;46441;-78
2023/09/27 11:14:31;;;;;;;8.63;5.30;;;22.00;32.20;;;;;;5002066;28;46884;-78
2023/09/27 11:17:17;;;;;;;8.57;5.20;;;22.10;32.50;;;;;;5020840;28;46678;-78
2023/09/27 11:19:42;;;;;;;9.10;5.63;;;22.20;30.80;;;;;;4988650;28;46519;-79
2023/09/27 11:22:08;;;;;;;9.27;5.57;;;22.30;30.00;;;;;;5021479;28;46357;-78
2023/09/27 11:24:40;;;;;;;13.07;5.30;;;22.20;29.90;;;;;;5022750;28;46421;-78
2023/09/27 11:27:07;;;;;;;10.43;5.10;;;22.30;30.10;;;;;;5020039;28;48454;-78
2023/09/27 11:29:33;;;;;;;9.07;4.43;;;22.30;29.50;;;;;;5022364;28;46448;-79
2023/09/27 11:31:59;;;;;;;12.03;4.77;;;22.40;28.90;;;;;;5001256;28;46841;-79
2023/09/27 11:34:25;;;;;;;8.73;4.53;;;22.40;28.40;;;;;;5021442;28;46600;-79
2023/09/27 11:36:52;;;;;;;10.47;3.50;;;22.30;28.30;;;;;;5003278;28;48408;-79
2023/09/27 11:39:49;;;;;;;6.50;3.93;;;22.30;27.70;;;;;;5020026;28;46710;-78
2023/09/27 11:42:23;;;;;;;9.20;3.90;;;22.30;27.20;;;;;;5022962;28;46512;-77
2023/09/27 11:45:12;;;;;;;5.20;3.43;;;22.40;26.80;;;;;;5026022;28;46452;-79
2023/09/27 11:48:05;;;;;;;6.20;3.43;;;22.40;26.30;;;;;;5006449;28;48383;-78
2023/09/27 11:50:30;;;;;;;8.17;3.53;;;22.50;26.10;;;;;;5019041;28;46488;-78
2023/09/27 11:52:56;;;;;;;6.40;3.73;;;22.50;26.20;;;;;;5023906;28;46495;-79
2023/09/27 11:55:22;;;;;;;8.17;3.60;;;22.50;26.10;;;;;;5021891;28;46701;-78
2023/09/27 11:57:47;;;;;;;5.73;3.43;;;22.50;26.40;;;;;;5024006;28;46546;-79
2023/09/27 12:00:15;;;;;;;6.27;3.40;;;22.40;26.50;;;;;;5028373;28;46982;-79
2023/09/27 12:02:43;;;;;;;6.50;3.50;;;22.50;26.60;;;;;;5010713;28;46552;-78
2023/09/27 12:05:09;;;;;;;6.40;3.80;;;22.50;26.00;;;;;;5021551;28;46720;-78
2023/09/27 12:07:35;;;;;;;8.13;4.33;;;22.60;26.40;;;;;;5019539;28;46706;-78
2023/09/27 12:10:01;;;;;;;6.03;3.80;;;22.60;26.60;;;;;;5022455;28;46441;-81
2023/09/27 12:12:29;;;;;;;8.50;4.00;;;22.60;26.50;;;;;;5020703;28;46575;-79
2023/09/27 12:14:55;;;;;;;5.60;3.80;;;22.60;26.50;;;;;;5019730;28;46653;-80
2023/09/27 12:17:21;;;;;;;9.90;4.07;;;22.70;26.80;;;;;;5019408;28;46666;-79
2023/09/27 12:19:47;;;;;;;6.23;3.40;;;22.70;26.30;;;;;;5020280;28;46483;-79
2023/09/27 12:22:12;;;;;;;7.60;4.13;;;22.70;26.30;;;;;;5020290;28;46928;-79
2023/09/27 12:24:39;;;;;;;8.30;4.00;;;22.60;26.30;;;;;;5020376;28;46515;-79
2023/09/27 12:27:04;;;;;;;7.50;3.30;;;22.60;26.40;;;;;;5020834;28;46920;-79
2023/09/27 12:29:30;;;;;;;6.90;3.30;;;22.50;26.50;;;;;;5021422;28;46456;-78
2023/09/27 12:31:56;;;;;;;10.07;4.00;;;22.70;26.20;;;;;;5021831;28;46399;-78
2023/09/27 12:34:21;;;;;;;10.57;4.23;;;22.60;26.30;;;;;;5020481;28;46467;-78
2023/09/27 12:36:47;;;;;;;6.87;3.00;;;22.70;26.60;;;;;;5021571;28;46565;-80
2023/09/27 12:39:13;;;;;;;4.83;2.93;;;22.70;26.30;;;;;;5004063;28;46443;-79
2023/09/27 12:41:39;;;;;;;5.67;2.93;;;22.80;25.90;;;;;;5020928;28;46366;-80